Time;durP1;ratioP1;P1;durP2;ratioP2;P2;SDS_P1;SDS_P2;PMS_P1;PMS_P2;Temp;Humidity;BMP_temperature;BMP_pressure;BME280_temperature;BME280_humidity;BME280_pressure;Samples;Min_cycle;Max_cycle;Signal;HPM_P1;HPM_P2
2024/01/21 00:00:58;;;;;;;1999.90;999.90;;;-6.40;99.90;;;;;;4961401;28;20028;-83
2024/01/21 00:03:24;;;;;;;1999.90;999.90;;;-6.40;99.90;;;;;;4961021;28;20035;-84
2024/01/21 00:05:50;;;;;;;1999.90;999.90;;;-6.40;99.90;;;;;;4962792;28;20039;-83
2024/01/21 00:08:15;;;;;;;1999.90;999.90;;;-6.40;99.90;;;;;;4960426;28;20040;-83
2024/01/21 00:10:41;;;;;;;1999.90;999.90;;;-6.40;99.90;;;;;;4960670;28;20035;-83
2024/01/21 00:13:06;;;;;;;1999.90;999.90;;;-6.40;99.90;;;;;;4960935;28;20036;-83
2024/01/21 00:15:32;;;;;;;1999.90;999.90;;;-6.40;99.90;;;;;;4963131;28;20039;-83
2024/01/21 00:17:57;;;;;;;1999.90;999.90;;;-6.50;99.90;;;;;;4960477;28;20066;-83
2024/01/21 00:20:23;;;;;;;1999.90;999.90;;;-6.50;99.90;;;;;;4963927;28;20085;-83
2024/01/21 00:22:48;;;;;;;1999.90;999.90;;;-6.50;99.90;;;;;;4967976;28;20044;-83
2024/01/21 00:25:14;;;;;;;1999.90;999.90;;;-6.60;99.90;;;;;;4968924;28;20036;-84
2024/01/21 00:27:39;;;;;;;1999.90;999.90;;;-6.60;99.90;;;;;;4965944;28;20040;-83
2024/01/21 00:30:06;;;;;;;1999.90;999.90;;;-6.60;99.90;;;;;;4966407;28;20419;-83
2024/01/21 00:32:31;;;;;;;1999.90;999.90;;;-6.60;99.90;;;;;;4967943;28;20036;-84
2024/01/21 00:34:57;;;;;;;1999.90;999.90;;;-6.60;99.90;;;;;;4966969;28;20100;-83
2024/01/21 00:37:22;;;;;;;1999.90;999.90;;;-6.60;99.90;;;;;;4966666;28;20083;-84
2024/01/21 00:39:48;;;;;;;1999.90;999.90;;;-6.60;99.90;;;;;;4967242;28;20036;-83
2024/01/21 00:42:13;;;;;;;1999.90;999.90;;;-6.60;99.90;;;;;;4966949;28;20035;-84
2024/01/21 00:44:40;;;;;;;1999.90;999.90;;;-6.70;99.90;;;;;;4969316;28;20063;-83
2024/01/21 00:47:05;;;;;;;1999.90;999.90;;;-6.70;99.90;;;;;;4968387;28;20044;-84
2024/01/21 00:49:31;;;;;;;1999.90;999.90;;;-6.70;99.90;;;;;;4968263;28;20615;-84
2024/01/21 00:51:57;;;;;;;1999.90;999.90;;;-6.70;99.90;;;;;;4967777;28;20485;-84
2024/01/21 00:54:22;;;;;;;1999.90;999.90;;;-6.80;99.90;;;;;;4970651;28;20031;-84
2024/01/21 00:56:48;;;;;;;1999.90;999.90;;;-6.80;99.90;;;;;;4970717;28;20194;-84
2024/01/21 00:59:13;;;;;;;1999.90;999.90;;;-6.70;99.90;;;;;;4970340;28;20039;-84
2024/01/21 01:01:39;;;;;;;1999.90;999.90;;;-6.60;99.90;;;;;;4971923;28;20055;-83
2024/01/21 01:04:05;;;;;;;1999.90;999.90;;;-6.60;99.90;;;;;;4962010;28;20039;-83
2024/01/21 01:06:32;;;;;;;1999.90;999.90;;;-6.60;99.90;;;;;;4962609;28;20031;-83
2024/01/21 01:08:57;;;;;;;1999.90;999.90;;;-6.60;99.90;;;;;;4960824;28;20030;-83
2024/01/21 01:11:24;;;;;;;1999.90;999.90;;;-6.60;99.90;;;;;;4963057;28;20130;-83
2024/01/21 01:13:50;;;;;;;1999.90;999.90;;;-6.50;99.90;;;;;;4961489;28;20038;-83
2024/01/21 01:16:16;;;;;;;1999.90;999.90;;;-6.40;99.90;;;;;;4959909;28;20043;-83
2024/01/21 01:18:42;;;;;;;1999.90;999.90;;;-6.50;99.90;;;;;;4959822;28;20038;-83
2024/01/21 01:21:11;;;;;;;1999.90;999.90;;;-6.50;99.90;;;;;;4959959;28;20678;-83
2024/01/21 01:23:36;;;;;;;1999.90;999.90;;;-6.60;99.90;;;;;;4959778;28;20111;-84
2024/01/21 01:26:02;;;;;;;1999.90;999.90;;;-6.60;99.90;;;;;;4959720;28;20565;-84
2024/01/21 01:28:28;;;;;;;1999.90;999.90;;;-6.70;99.90;;;;;;4961332;28;20086;-83
2024/01/21 01:30:53;;;;;;;1999.90;999.90;;;-6.70;99.90;;;;;;4961769;28;20039;-83
2024/01/21 01:33:19;;;;;;;1999.90;999.90;;;-6.70;99.90;;;;;;4961332;28;20070;-83
2024/01/21 01:35:44;;;;;;;1999.90;999.90;;;-6.70;99.90;;;;;;4960383;28;20051;-83
2024/01/21 01:38:13;;;;;;;1999.90;999.90;;;-6.70;99.90;;;;;;4962094;28;20040;-84
2024/01/21 01:40:38;;;;;;;1999.90;999.90;;;-6.70;99.90;;;;;;4960562;28;20088;-83
2024/01/21 01:43:04;;;;;;;1999.90;999.90;;;-6.70;99.90;;;;;;4961370;28;20566;-83
2024/01/21 01:45:30;;;;;;;1999.90;999.90;;;-6.80;99.90;;;;;;4959920;28;20046;-84
2024/01/21 01:47:56;;;;;;;1999.90;999.90;;;-6.80;99.90;;;;;;4960198;28;20055;-83
2024/01/21 01:50:22;;;;;;;1999.90;999.90;;;-6.80;99.90;;;;;;4962017;28;20028;-83
2024/01/21 01:52:49;;;;;;;1999.90;999.90;;;-6.90;99.90;;;;;;4959961;28;20036;-84
2024/01/21 01:55:15;;;;;;;1999.90;999.90;;;-6.90;99.90;;;;;;4961757;28;20036;-83
2024/01/21 01:57:40;;;;;;;1999.90;999.90;;;-6.90;99.90;;;;;;4959826;28;20040;-83
2024/01/21 02:00:07;;;;;;;1999.90;999.90;;;-6.90;99.90;;;;;;4959846;28;20047;-84
2024/01/21 02:02:34;;;;;;;1999.90;999.90;;;-6.90;99.90;;;;;;4960736;28;20055;-83
2024/01/21 02:05:03;;;;;;;1999.90;999.90;;;-6.90;99.90;;;;;;4959974;28;20599;-84
2024/01/21 02:07:29;;;;;;;1999.90;999.90;;;-7.00;99.90;;;;;;4961452;28;20046;-83
2024/01/21 02:09:55;;;;;;;1999.90;999.90;;;-7.00;99.90;;;;;;4959568;28;20036;-83
2024/01/21 02:12:20;;;;;;;1999.90;999.90;;;-7.00;99.90;;;;;;4959932;28;20042;-83
2024/01/21 02:14:46;;;;;;;1999.90;999.90;;;-7.00;99.90;;;;;;4959887;28;20475;-83
2024/01/21 02:17:11;;;;;;;1999.90;999.90;;;-7.10;99.90;;;;;;4959965;28;20094;-83
2024/01/21 02:19:38;;;;;;;1999.90;999.90;;;-7.00;99.90;;;;;;4960443;28;20038;-83
2024/01/21 02:22:04;;;;;;;1999.90;999.90;;;-7.10;99.90;;;;;;4960260;28;20039;-83
2024/01/21 02:24:31;;;;;;;1999.90;999.90;;;-7.10;99.90;;;;;;4960807;28;20040;-83
2024/01/21 02:26:57;;;;;;;1999.90;999.90;;;-7.10;99.90;;;;;;4961150;28;20036;-83
2024/01/21 02:29:23;;;;;;;1999.90;999.90;;;-7.10;99.90;;;;;;4960949;28;20445;-83
2024/01/21 02:31:51;;;;;;;1999.90;999.90;;;-7.10;99.90;;;;;;4961197;28;20098;-83
2024/01/21 02:34:17;;;;;;;1999.90;999.90;;;-7.10;99.90;;;;;;4960460;28;20061;-83
2024/01/21 02:36:43;;;;;;;1999.90;999.90;;;-7.10;99.90;;;;;;4961345;28;20100;-83
2024/01/21 02:39:09;;;;;;;1999.90;999.90;;;-7.20;99.90;;;;;;4959429;28;20168;-83
2024/01/21 02:41:34;;;;;;;1999.90;999.90;;;-7.20;99.90;;;;;;4961156;28;20039;-83
2024/01/21 02:44:01;;;;;;;1999.90;999.90;;;-7.30;99.90;;;;;;4960732;28;20032;-83
2024/01/21 02:46:26;;;;;;;1999.90;999.90;;;-7.40;99.90;;;;;;4961221;28;20091;-83
2024/01/21 02:48:52;;;;;;;1999.90;999.90;;;-7.50;99.90;;;;;;4961366;28;20438;-83
2024/01/21 02:51:18;;;;;;;1999.90;999.90;;;-7.50;99.90;;;;;;4961263;28;20092;-83
2024/01/21 02:53:43;;;;;;;1999.90;999.90;;;-7.40;99.90;;;;;;4961249;28;20066;-83
2024/01/21 02:56:18;;;;;;;1999.90;999.90;;;-7.50;99.90;;;;;;4960398;28;20035;-83
2024/01/21 02:58:44;;;;;;;1999.90;999.90;;;-7.50;99.90;;;;;;4961117;28;20123;-83
2024/01/21 03:01:09;;;;;;;1999.90;999.90;;;-7.50;99.90;;;;;;4962906;28;20083;-83
2024/01/21 03:03:35;;;;;;;1999.90;999.90;;;-7.40;99.90;;;;;;4962994;28;20047;-83
2024/01/21 03:06:00;;;;;;;1999.90;999.90;;;-7.40;99.90;;;;;;4961663;28;20525;-83
2024/01/21 03:08:26;;;;;;;1999.90;999.90;;;-7.40;99.90;;;;;;4961245;28;20036;-83
2024/01/21 03:10:51;;;;;;;1999.90;999.90;;;-7.40;99.90;;;;;;4963328;28;20041;-83
2024/01/21 03:13:17;;;;;;;1999.90;999.90;;;-7.40;99.90;;;;;;4960858;28;20091;-83
2024/01/21 03:15:43;;;;;;;1999.90;999.90;;;-7.50;99.90;;;;;;4962739;28;20032;-83
2024/01/21 03:18:08;;;;;;;1999.90;999.90;;;-7.50;99.90;;;;;;4970033;28;20048;-83
2024/01/21 03:20:34;;;;;;;1999.90;999.90;;;-7.40;99.90;;;;;;4963073;28;20035;-83
2024/01/21 03:22:59;;;;;;;1999.90;999.90;;;-7.50;99.90;;;;;;4957545;28;20520;-83
2024/01/21 03:25:25;;;;;;;1999.90;999.90;;;-7.50;99.90;;;;;;4957850;28;20024;-83
2024/01/21 03:27:50;;;;;;;1999.90;999.90;;;-7.50;99.90;;;;;;4957457;28;20043;-83
2024/01/21 03:30:16;;;;;;;1999.90;999.90;;;-7.40;99.90;;;;;;4957281;28;20040;-83
2024/01/21 03:32:41;;;;;;;1999.90;999.90;;;-7.40;99.90;;;;;;4958212;28;20040;-83
2024/01/21 03:35:07;;;;;;;1999.90;999.90;;;-7.30;99.90;;;;;;4958809;28;20038;-83
2024/01/21 03:37:32;;;;;;;1999.90;999.90;;;-7.20;99.90;;;;;;4956891;28;20054;-83
2024/01/21 03:39:58;;;;;;;1999.90;999.90;;;-7.20;99.90;;;;;;4959328;28;20035;-83
2024/01/21 03:42:23;;;;;;;1999.90;999.90;;;-7.10;99.90;;;;;;4959008;28;20771;-83
2024/01/21 03:44:49;;;;;;;1999.90;999.90;;;-7.00;99.90;;;;;;4962680;28;20036;-83
2024/01/21 03:47:15;;;;;;;1999.90;999.90;;;-7.00;99.90;;;;;;4963070;28;20504;-83
2024/01/21 03:49:40;;;;;;;1999.90;999.90;;;-7.00;99.90;;;;;;4960949;28;20038;-83
2024/01/21 03:52:06;;;;;;;1999.90;999.90;;;-7.10;99.90;;;;;;4962381;28;20043;-83
2024/01/21 03:54:31;;;;;;;1999.90;999.90;;;-7.10;99.90;;;;;;4961292;28;20482;-82
2024/01/21 03:56:57;;;;;;;1999.90;999.90;;;-7.10;99.90;;;;;;4960614;28;20075;-83
2024/01/21 03:59:22;;;;;;;1999.90;999.90;;;-7.20;99.90;;;;;;4962074;28;20039;-83
2024/01/21 04:01:49;;;;;;;1999.90;999.90;;;-7.20;99.90;;;;;;4961144;28;20092;-83
2024/01/21 04:04:15;;;;;;;1999.90;999.90;;;-7.30;99.90;;;;;;4961978;28;20028;-83
2024/01/21 04:06:44;;;;;;;1999.90;999.90;;;-7.40;99.90;;;;;;4963140;28;20454;-83
2024/01/21 04:09:10;;;;;;;1999.90;999.90;;;-7.40;99.90;;;;;;4960756;28;20031;-83
2024/01/21 04:11:36;;;;;;;1999.90;999.90;;;-7.40;99.90;;;;;;4960957;28;20123;-83
2024/01/21 04:14:01;;;;;;;1999.90;999.90;;;-7.40;99.90;;;;;;4963248;28;20114;-83
2024/01/21 04:16:27;;;;;;;1999.90;999.90;;;-7.30;99.90;;;;;;4961226;28;20091;-82
2024/01/21 04:18:53;;;;;;;1999.90;999.90;;;-7.20;99.90;;;;;;4961348;28;20465;-82
2024/01/21 04:21:18;;;;;;;1999.90;999.90;;;-7.30;99.90;;;;;;4963207;28;20063;-83
2024/01/21 04:23:44;;;;;;;1999.90;999.90;;;-7.20;99.90;;;;;;4966482;28;20028;-83
2024/01/21 04:26:09;;;;;;;1999.90;999.90;;;-7.20;99.90;;;;;;4963458;28;20685;-83
2024/01/21 04:28:37;;;;;;;1999.90;999.90;;;-7.20;99.90;;;;;;4961554;28;20533;-82
2024/01/21 04:31:02;;;;;;;1999.90;999.90;;;-7.30;99.90;;;;;;4961239;28;20047;-83
2024/01/21 04:33:28;;;;;;;1999.90;999.90;;;-7.30;99.90;;;;;;4961851;28;20031;-83
2024/01/21 04:35:53;;;;;;;1999.90;999.90;;;-7.30;99.90;;;;;;4962302;28;20047;-83
2024/01/21 04:38:21;;;;;;;1999.90;999.90;;;-7.30;99.90;;;;;;4962941;28;20044;-83
2024/01/21 04:40:47;;;;;;;1999.90;999.90;;;-7.30;99.90;;;;;;4963288;28;20031;-83
2024/01/21 04:43:12;;;;;;;1999.90;999.90;;;-7.30;99.90;;;;;;4963495;28;20031;-83
2024/01/21 04:45:38;;;;;;;1999.90;999.90;;;-7.40;99.90;;;;;;4963911;28;20046;-83
2024/01/21 04:48:04;;;;;;;1999.90;999.90;;;-7.30;99.90;;;;;;4961600;28;20132;-82
2024/01/21 04:50:29;;;;;;;1999.90;999.90;;;-7.40;99.90;;;;;;4963366;28;20036;-82
2024/01/21 04:52:55;;;;;;;1999.90;999.90;;;-7.30;99.90;;;;;;4961444;28;20048;-83
2024/01/21 04:55:21;;;;;;;1999.90;999.90;;;-7.40;99.90;;;;;;4963680;28;20036;-82
2024/01/21 04:57:46;;;;;;;1999.90;999.90;;;-7.40;99.90;;;;;;4962249;28;20131;-83
2024/01/21 05:00:12;;;;;;;1999.90;999.90;;;-7.30;99.90;;;;;;4961489;28;20043;-83
2024/01/21 05:02:38;;;;;;;1999.90;999.90;;;-7.30;99.90;;;;;;4963561;28;20035;-83
2024/01/21 05:05:04;;;;;;;1999.90;999.90;;;-7.30;99.90;;;;;;4964115;28;20035;-83
2024/01/21 05:07:30;;;;;;;1999.90;999.90;;;-7.30;99.90;;;;;;4964385;28;20039;-82
2024/01/21 05:09:56;;;;;;;1999.90;999.90;;;-7.20;99.90;;;;;;4965377;28;20043;-82
2024/01/21 05:12:21;;;;;;;1999.90;999.90;;;-7.20;99.90;;;;;;4963153;28;20038;-83
2024/01/21 05:14:47;;;;;;;1999.90;999.90;;;-7.20;99.90;;;;;;4963703;28;20046;-83
2024/01/21 05:17:13;;;;;;;1999.90;999.90;;;-7.20;99.90;;;;;;4965154;28;20414;-83
2024/01/21 05:19:38;;;;;;;1999.90;999.90;;;-7.10;99.90;;;;;;4964054;28;20042;-83
2024/01/21 05:22:04;;;;;;;1999.90;999.90;;;-7.10;99.90;;;;;;4963683;28;20116;-82
2024/01/21 05:24:29;;;;;;;1999.90;999.90;;;-7.00;99.90;;;;;;4964494;28;20043;-82
2024/01/21 05:26:55;;;;;;;1999.90;999.90;;;-7.00;99.90;;;;;;4966283;28;20083;-83
2024/01/21 05:29:21;;;;;;;1999.90;999.90;;;-7.00;99.90;;;;;;4964222;28;20035;-83
2024/01/21 05:31:47;;;;;;;1999.90;999.90;;;-7.00;99.90;;;;;;4965134;28;20035;-83
2024/01/21 05:34:13;;;;;;;1999.90;999.90;;;-7.00;99.90;;;;;;4965428;28;20031;-83
2024/01/21 05:36:38;;;;;;;1999.90;999.90;;;-6.90;99.90;;;;;;4961955;28;20387;-83
2024/01/21 05:39:04;;;;;;;1999.90;999.90;;;-6.90;99.90;;;;;;4959475;28;20560;-82
2024/01/21 05:41:30;;;;;;;1999.90;999.90;;;-6.90;99.90;;;;;;4959490;28;20047;-83
2024/01/21 05:43:56;;;;;;;1999.90;999.90;;;-6.90;99.90;;;;;;4960423;28;20474;-82
2024/01/21 05:46:21;;;;;;;1999.90;999.90;;;-6.90;99.90;;;;;;4959722;28;20062;-82
2024/01/21 05:48:47;;;;;;;1999.90;999.90;;;-6.90;99.90;;;;;;4960231;28;20040;-82
2024/01/21 05:51:12;;;;;;;1999.90;999.90;;;-6.90;99.90;;;;;;4959920;28;20036;-82
2024/01/21 05:53:42;;;;;;;1999.90;999.90;;;-6.90;99.90;;;;;;4959749;28;20043;-82
2024/01/21 05:56:07;;;;;;;1999.90;999.90;;;-6.90;99.90;;;;;;4959989;28;20042;-83
2024/01/21 05:58:34;;;;;;;1999.90;999.90;;;-6.90;99.90;;;;;;4958927;28;20050;-82
2024/01/21 06:01:00;;;;;;;1999.90;999.90;;;-6.90;99.90;;;;;;4960552;28;20036;-83
2024/01/21 06:03:25;;;;;;;1999.90;999.90;;;-6.90;99.90;;;;;;4960507;28;20040;-82
2024/01/21 06:05:51;;;;;;;1999.90;999.90;;;-6.90;99.90;;;;;;4958328;28;20038;-83
2024/01/21 06:08:16;;;;;;;1999.90;999.90;;;-6.90;99.90;;;;;;4959342;28;20091;-82
2024/01/21 06:10:42;;;;;;;1999.90;999.90;;;-6.90;99.90;;;;;;4960591;28;20055;-83
2024/01/21 06:13:07;;;;;;;1999.90;999.90;;;-6.90;99.90;;;;;;4962221;28;20039;-82
2024/01/21 06:15:33;;;;;;;1999.90;999.90;;;-6.90;99.90;;;;;;4960107;28;20047;-82
2024/01/21 06:17:59;;;;;;;1999.90;999.90;;;-6.90;99.90;;;;;;4960516;28;20486;-83
2024/01/21 06:20:24;;;;;;;1999.90;999.90;;;-7.00;99.90;;;;;;4958558;28;20390;-82
2024/01/21 06:22:50;;;;;;;1999.90;999.90;;;-6.90;99.90;;;;;;4960315;28;20046;-82
2024/01/21 06:25:15;;;;;;;1999.90;999.90;;;-7.00;99.90;;;;;;4959383;28;20035;-83
2024/01/21 06:27:42;;;;;;;1999.90;999.90;;;-7.10;99.90;;;;;;4959132;28;20455;-83
2024/01/21 06:30:15;;;;;;;1999.90;999.90;;;-7.10;99.90;;;;;;4959732;28;20040;-83
2024/01/21 06:32:40;;;;;;;1999.90;999.90;;;-7.10;99.90;;;;;;4960785;28;20040;-83
2024/01/21 06:35:06;;;;;;;1999.90;999.90;;;-7.10;99.90;;;;;;4960067;28;20028;-83
2024/01/21 06:37:32;;;;;;;1999.90;999.90;;;-7.10;99.90;;;;;;4959708;28;20050;-82
2024/01/21 06:39:58;;;;;;;1999.90;999.90;;;-7.10;99.90;;;;;;4959745;28;20562;-83
2024/01/21 06:42:23;;;;;;;1999.90;999.90;;;-7.10;99.90;;;;;;4959520;28;20046;-83
2024/01/21 06:44:49;;;;;;;1999.90;999.90;;;-7.00;99.90;;;;;;4962113;28;20034;-82
2024/01/21 06:47:14;;;;;;;1999.90;999.90;;;-7.10;99.90;;;;;;4960172;28;20040;-82
2024/01/21 06:49:40;;;;;;;1999.90;999.90;;;-7.00;99.90;;;;;;4960581;28;20047;-82
2024/01/21 06:52:08;;;;;;;1999.90;999.90;;;-7.00;99.90;;;;;;4960194;28;20114;-82
2024/01/21 06:54:34;;;;;;;1999.90;999.90;;;-7.00;99.90;;;;;;4961561;28;20036;-82
2024/01/21 06:56:59;;;;;;;1999.90;999.90;;;-7.00;99.90;;;;;;4962420;28;20040;-82
2024/01/21 06:59:25;;;;;;;1999.90;999.90;;;-6.90;99.90;;;;;;4974025;23;20421;-86
2024/01/21 07:01:50;;;;;;;1999.90;999.90;;;-6.90;99.90;;;;;;4954725;28;20508;-85
2024/01/21 07:04:18;;;;;;;1999.90;999.90;;;-6.90;99.90;;;;;;4955424;28;20043;-86
2024/01/21 07:06:44;;;;;;;1999.90;999.90;;;-6.90;99.90;;;;;;4955077;28;20078;-86
2024/01/21 07:09:10;;;;;;;1999.90;999.90;;;-6.80;99.90;;;;;;4954965;28;20031;-86
2024/01/21 07:11:40;;;;;;;1999.90;999.90;;;-6.90;99.90;;;;;;4955092;28;20043;-86
2024/01/21 07:14:06;;;;;;;1999.90;999.90;;;-6.90;99.90;;;;;;4957443;28;20043;-86
2024/01/21 07:16:31;;;;;;;1999.90;999.90;;;-6.90;99.90;;;;;;4956597;28;20066;-86
2024/01/21 07:18:57;;;;;;;1999.90;999.90;;;-6.90;99.90;;;;;;4958380;28;20050;-86
2024/01/21 07:21:23;;;;;;;1999.90;999.90;;;-7.00;99.90;;;;;;4958234;28;20072;-86
2024/01/21 07:23:48;;;;;;;1999.90;999.90;;;-6.90;99.90;;;;;;4959507;28;20032;-86
2024/01/21 07:26:14;;;;;;;1999.90;999.90;;;-6.90;99.90;;;;;;4958343;28;20087;-86
2024/01/21 07:28:40;;;;;;;1999.90;999.90;;;-6.90;99.90;;;;;;4958125;28;20032;-87
2024/01/21 07:31:06;;;;;;;1999.90;999.90;;;-6.90;99.90;;;;;;4959317;28;20119;-86
2024/01/21 07:33:31;;;;;;;1999.90;999.90;;;-6.90;99.90;;;;;;4958443;28;20564;-86
2024/01/21 07:35:58;;;;;;;1999.90;999.90;;;-6.80;99.90;;;;;;4959793;28;20031;-86
2024/01/21 07:38:23;;;;;;;1999.90;999.90;;;-6.70;99.90;;;;;;4958356;28;20051;-86
2024/01/21 07:40:49;;;;;;;1999.90;999.90;;;-6.60;99.90;;;;;;4959429;28;20087;-85
2024/01/21 07:43:15;;;;;;;1999.90;999.90;;;-6.50;99.90;;;;;;4958209;28;20477;-85
2024/01/21 07:45:41;;;;;;;1999.90;999.90;;;-6.40;99.90;;;;;;4959780;28;20052;-85
2024/01/21 07:48:07;;;;;;;1999.90;999.90;;;-6.30;99.90;;;;;;4958434;28;20127;-85
2024/01/21 07:50:36;;;;;;;1999.90;999.90;;;-6.20;99.90;;;;;;4959374;28;20482;-85
2024/01/21 07:53:02;;;;;;;1999.90;999.90;;;-6.00;99.90;;;;;;4960179;28;20774;-85
2024/01/21 07:55:28;;;;;;;1999.90;999.90;;;-5.90;99.90;;;;;;4958796;28;20820;-85
2024/01/21 07:57:53;;;;;;;1999.90;999.90;;;-5.70;99.90;;;;;;4958814;28;20048;-86
2024/01/21 08:00:19;;;;;;;1999.90;999.90;;;-5.50;99.90;;;;;;4957831;28;20035;-85
2024/01/21 08:02:45;;;;;;;1999.90;999.90;;;-5.40;99.90;;;;;;4957758;28;20129;-85
2024/01/21 08:05:10;;;;;;;1999.90;999.90;;;-5.30;99.90;;;;;;4958210;28;20785;-86
2024/01/21 08:07:45;;;;;;;1999.90;999.90;;;-5.20;99.90;;;;;;4960739;28;20064;-84
2024/01/21 08:10:10;;;;;;;1999.90;999.90;;;-5.20;99.90;;;;;;4958074;28;20039;-84
2024/01/21 08:12:36;;;;;;;1999.90;999.90;;;-5.00;99.90;;;;;;4958132;28;20044;-85
2024/01/21 08:15:03;;;;;;;1999.90;999.90;;;-4.90;99.90;;;;;;4959213;28;20497;-84
2024/01/21 08:17:28;;;;;;;1999.90;999.90;;;-4.80;99.90;;;;;;4957738;28;20490;-85
2024/01/21 08:19:54;;;;;;;1999.90;999.90;;;-4.80;99.90;;;;;;4957519;28;20079;-85
2024/01/21 08:22:19;;;;;;;1999.90;999.90;;;-4.70;99.90;;;;;;4957197;28;20405;-84
2024/01/21 08:24:45;;;;;;;1999.90;999.90;;;-4.70;99.90;;;;;;4958313;28;20039;-85
2024/01/21 08:27:10;;;;;;;1999.90;999.90;;;-4.70;99.90;;;;;;4958224;28;20076;-85
2024/01/21 08:29:39;;;;;;;1999.90;999.90;;;-4.60;99.90;;;;;;4957229;28;20043;-84
2024/01/21 08:32:07;;;;;;;1999.90;999.90;;;-4.60;99.90;;;;;;4957773;28;20115;-84
2024/01/21 08:34:33;;;;;;;1999.90;999.90;;;-4.60;99.90;;;;;;4959727;28;20032;-84
2024/01/21 08:36:58;;;;;;;1999.90;999.90;;;-4.60;99.90;;;;;;4959463;28;20532;-84
2024/01/21 08:39:24;;;;;;;1999.90;999.90;;;-4.50;99.90;;;;;;4956921;28;20060;-86
2024/01/21 08:41:50;;;;;;;1999.90;999.90;;;-4.50;99.90;;;;;;4958586;28;20211;-86
2024/01/21 08:44:15;;;;;;;1999.90;999.90;;;-4.40;99.90;;;;;;4958893;28;20039;-85
2024/01/21 08:46:41;;;;;;;1999.90;999.90;;;-4.20;99.90;;;;;;4957296;28;20103;-86
2024/01/21 08:49:06;;;;;;;1999.90;999.90;;;-4.10;99.90;;;;;;4956988;28;20032;-86
2024/01/21 08:51:32;;;;;;;1999.90;999.90;;;-4.00;99.90;;;;;;4957876;28;20038;-86
2024/01/21 08:53:59;;;;;;;1999.90;999.90;;;-3.90;99.90;;;;;;4957514;28;20119;-86
2024/01/21 08:56:25;;;;;;;1999.90;999.90;;;-3.80;99.90;;;;;;4957078;28;20036;-85
2024/01/21 08:58:52;;;;;;;1999.90;999.90;;;-3.70;99.90;;;;;;4956257;28;20039;-85
2024/01/21 09:01:18;;;;;;;1999.90;999.90;;;-3.60;99.90;;;;;;4956928;28;20044;-86
2024/01/21 09:03:44;;;;;;;1999.90;999.90;;;-3.50;99.90;;;;;;4957101;28;20059;-85
2024/01/21 09:06:10;;;;;;;1999.90;999.90;;;-3.50;99.90;;;;;;4956925;28;20497;-86
2024/01/21 09:08:36;;;;;;;1999.90;999.90;;;-3.40;99.90;;;;;;4956596;28;20043;-86
2024/01/21 09:11:02;;;;;;;1999.90;999.90;;;-3.30;99.90;;;;;;4956646;28;20489;-85
2024/01/21 09:13:27;;;;;;;1999.90;999.90;;;-3.30;99.90;;;;;;4958291;28;20040;-87
2024/01/21 09:15:53;;;;;;;1999.90;999.90;;;-3.20;99.90;;;;;;4956395;28;20036;-85
2024/01/21 09:18:18;;;;;;;1999.90;999.90;;;-3.10;99.90;;;;;;4956646;28;20574;-85
2024/01/21 09:20:44;;;;;;;1999.90;999.90;;;-3.10;99.90;;;;;;4967924;28;20035;-86
2024/01/21 09:23:09;;;;;;;1999.90;999.90;;;-3.10;99.90;;;;;;4975516;28;20118;-85
2024/01/21 09:25:35;;;;;;;1999.90;999.90;;;-3.10;99.90;;;;;;4975972;28;20046;-84
2024/01/21 09:28:05;;;;;;;1999.90;999.90;;;-2.90;99.90;;;;;;4976735;28;20046;-86
2024/01/21 09:30:31;;;;;;;1999.90;999.90;;;-3.00;99.90;;;;;;4976269;28;20390;-86
2024/01/21 09:32:57;;;;;;;1999.90;999.90;;;-2.70;99.90;;;;;;4975647;28;20097;-86
2024/01/21 09:35:22;;;;;;;1999.90;999.90;;;-2.30;99.90;;;;;;4975713;28;20039;-86
2024/01/21 09:37:48;;;;;;;1999.90;999.90;;;-2.50;99.90;;;;;;4975625;28;20047;-86
2024/01/21 09:40:14;;;;;;;1999.90;999.90;;;-2.30;99.90;;;;;;4975541;28;20516;-86
2024/01/21 09:42:40;;;;;;;1999.90;999.90;;;-2.20;99.90;;;;;;4975081;28;20039;-85
2024/01/21 09:45:09;;;;;;;1999.90;999.90;;;-2.40;99.90;;;;;;4975579;28;20031;-86
2024/01/21 09:47:36;;;;;;;1999.90;999.90;;;-2.40;99.90;;;;;;4975174;28;20039;-86
2024/01/21 09:50:03;;;;;;;1999.90;999.90;;;-2.20;99.90;;;;;;4974106;28;20031;-85
2024/01/21 09:52:29;;;;;;;1999.90;999.90;;;-2.10;99.90;;;;;;4976877;28;20148;-84
2024/01/21 09:54:55;;;;;;;1999.90;999.90;;;-2.00;99.90;;;;;;4977023;28;20031;-84
2024/01/21 09:57:21;;;;;;;1999.90;999.90;;;-2.10;99.90;;;;;;4975830;28;20545;-85
2024/01/21 09:59:47;;;;;;;1999.90;999.90;;;-2.10;99.90;;;;;;4975674;28;20122;-86
2024/01/21 10:02:17;;;;;;;1999.90;999.90;;;-2.10;99.90;;;;;;4977099;28;20039;-85
2024/01/21 10:04:44;;;;;;;1999.90;999.90;;;-2.10;99.90;;;;;;4978406;28;20094;-85
2024/01/21 10:07:12;;;;;;;1999.90;999.90;;;-2.10;99.90;;;;;;4981200;28;20757;-85
2024/01/21 10:09:38;;;;;;;1999.90;999.90;;;-2.00;99.90;;;;;;4979658;28;20066;-85
2024/01/21 10:12:05;;;;;;;1999.90;999.90;;;-1.90;99.90;;;;;;4976912;28;20043;-84
2024/01/21 10:14:33;;;;;;;1999.90;999.90;;;-1.90;99.90;;;;;;4975255;28;20086;-85
2024/01/21 10:17:00;;;;;;;1999.90;999.90;;;-1.80;99.90;;;;;;4975117;28;20528;-87
2024/01/21 10:19:26;;;;;;;1999.90;999.90;;;-1.60;99.90;;;;;;4974919;28;20027;-85
2024/01/21 10:22:13;;;;;;;1999.90;999.90;;;-1.40;99.90;;;;;;4974546;28;20070;-84
2024/01/21 10:24:49;;;;;;;1999.90;999.90;;;-1.10;99.90;;;;;;4975334;28;20035;-84
2024/01/21 10:27:15;;;;;;;1999.90;999.90;;;-1.00;99.90;;;;;;4976385;28;20035;-84
2024/01/21 10:29:43;;;;;;;1999.90;999.90;;;-1.00;99.90;;;;;;4974816;28;20036;-85
2024/01/21 10:32:09;;;;;;;1999.90;999.90;;;-0.70;99.90;;;;;;4974023;28;20047;-85
2024/01/21 10:34:39;;;;;;;1999.90;999.90;;;-0.60;99.90;;;;;;4976467;28;20036;-86
2024/01/21 10:37:05;;;;;;;1999.90;999.90;;;-0.50;99.90;;;;;;4975037;28;20505;-87
2024/01/21 10:39:34;;;;;;;1999.90;999.90;;;-0.50;99.90;;;;;;4961665;28;20032;-85
2024/01/21 10:42:00;;;;;;;1999.90;999.90;;;-0.50;99.90;;;;;;4955587;28;20047;-85
2024/01/21 10:44:29;;;;;;;1999.90;999.90;;;-0.40;99.90;;;;;;4961163;28;20035;-85
2024/01/21 10:46:55;;;;;;;1999.90;999.90;;;-0.40;99.90;;;;;;4963676;28;20152;-85
2024/01/21 10:49:22;;;;;;;1999.90;999.90;;;-0.30;99.90;;;;;;4966030;28;20020;-85
2024/01/21 10:51:52;;;;;;;1999.90;999.90;;;-0.30;99.90;;;;;;4968561;28;20027;-85
2024/01/21 10:54:20;;;;;;;1999.90;999.90;;;-0.10;99.90;;;;;;4960860;28;20527;-84
2024/01/21 10:56:48;;;;;;;1999.90;999.90;;;0.00;99.90;;;;;;4958849;28;20039;-86
2024/01/21 10:59:14;;;;;;;1999.90;999.90;;;0.10;99.90;;;;;;4958565;28;20556;-84
2024/01/21 11:01:41;;;;;;;1999.90;999.90;;;0.30;99.90;;;;;;4958626;28;20046;-85
2024/01/21 11:04:11;;;;;;;1999.90;999.90;;;0.30;99.90;;;;;;4958679;28;20035;-90
2024/01/21 11:06:44;;;;;;;1999.90;999.90;;;0.50;99.90;;;;;;4959485;28;20032;-85
2024/01/21 11:09:10;;;;;;;1999.90;999.90;;;0.30;99.90;;;;;;4958586;28;20032;-85
2024/01/21 11:11:48;;;;;;;1999.90;999.90;;;0.30;99.90;;;;;;4959001;28;20115;-85
2024/01/21 11:14:35;;;;;;;1999.90;999.90;;;0.20;99.90;;;;;;4943890;28;20064;-85
2024/01/21 11:17:03;;;;;;;1999.90;999.90;;;0.10;99.90;;;;;;4955585;28;20119;-86
2024/01/21 11:19:47;;;;;;;1999.90;999.90;;;0.00;99.90;;;;;;4960354;28;20450;-87
2024/01/21 11:22:14;;;;;;;1999.90;999.90;;;-0.10;99.90;;;;;;4957733;28;20091;-85
2024/01/21 11:24:40;;;;;;;1999.90;999.90;;;0.00;99.90;;;;;;4963048;28;20591;-86
2024/01/21 11:27:18;;;;;;;1999.90;999.90;;;0.20;99.90;;;;;;4977789;28;20046;-86
2024/01/21 11:29:44;;;;;;;1999.90;999.90;;;0.00;99.90;;;;;;4977549;28;20083;-86
2024/01/21 11:32:11;;;;;;;1999.90;999.90;;;0.00;99.90;;;;;;4973765;28;20050;-87
2024/01/21 11:34:41;;;;;;;1999.90;999.90;;;0.10;99.90;;;;;;4972500;28;20094;-86
2024/01/21 11:37:17;;;;;;;1999.90;999.90;;;0.10;99.90;;;;;;4962434;28;20035;-86
2024/01/21 11:39:44;;;;;;;1999.90;999.90;;;0.20;99.90;;;;;;4974536;28;20035;-86
2024/01/21 11:42:10;;;;;;;1999.90;999.90;;;0.20;99.90;;;;;;4976563;28;20043;-87
2024/01/21 11:44:37;;;;;;;1999.90;999.90;;;0.10;99.90;;;;;;4977154;28;20035;-88
2024/01/21 11:47:04;;;;;;;1999.90;999.90;;;-0.10;99.90;;;;;;4978540;28;20503;-89
2024/01/21 11:49:31;;;;;;;1999.90;999.90;;;-0.10;99.90;;;;;;4961857;28;20123;-87
2024/01/21 11:52:00;;;;;;;1999.90;999.90;;;-0.20;99.90;;;;;;4957736;28;20050;-88
2024/01/21 11:54:27;;;;;;;1999.90;999.90;;;-0.20;99.90;;;;;;4957708;28;20930;-88